createdAt,value
2023-02-25T00:02:02.727Z,14.02
2023-02-25T00:04:34.487Z,16.95
2023-02-25T00:07:03.455Z,19.75
2023-02-25T00:09:31.441Z,19.02
2023-02-25T00:11:59.702Z,19.35
2023-02-25T00:14:28.349Z,19.17
2023-02-25T00:16:57.621Z,18.25
2023-02-25T00:19:27.119Z,16.60
2023-02-25T00:21:55.565Z,17.85
2023-02-25T00:24:23.864Z,16.58
2023-02-25T00:26:52.113Z,18.02
2023-02-25T00:29:20.368Z,16.20
2023-02-25T00:31:48.693Z,17.77
2023-02-25T00:34:18.009Z,14.93
2023-02-25T00:36:46.586Z,18.52
2023-02-25T00:39:15.245Z,16.98
2023-02-25T00:41:43.794Z,17.77
2023-02-25T00:44:13.260Z,17.92
2023-02-25T00:46:41.490Z,18.20
2023-02-25T00:49:16.710Z,18.00
2023-02-25T00:51:49.565Z,18.50
2023-02-25T00:54:19.812Z,18.75
2023-02-25T00:56:48.054Z,17.63
2023-02-25T00:59:16.325Z,16.85
2023-02-25T01:01:45.396Z,17.75
2023-02-25T01:04:13.561Z,16.35
2023-02-25T01:06:42.208Z,16.05
2023-02-25T01:09:14.242Z,17.20
2023-02-25T01:11:45.965Z,16.97
2023-02-25T01:16:50.910Z,12.77
2023-02-25T01:19:23.496Z,13.23
2023-02-25T01:21:58.451Z,13.85
2023-02-25T01:24:33.019Z,11.77
2023-02-25T01:27:03.884Z,12.45
2023-02-25T01:29:39.362Z,11.35
2023-02-25T01:32:13.975Z,12.82
2023-02-25T01:34:42.674Z,13.02
2023-02-25T01:37:10.901Z,10.80
2023-02-25T01:39:42.279Z,11.30
2023-02-25T01:42:18.020Z,9.77
2023-02-25T01:45:25.050Z,10.18
2023-02-25T01:48:09.858Z,9.80
2023-02-25T01:50:51.328Z,8.40
2023-02-25T01:53:31.016Z,7.93
2023-02-25T01:56:00.940Z,7.63
2023-02-25T01:58:30.186Z,8.40
2023-02-25T02:00:58.601Z,7.43
2023-02-25T02:03:32.913Z,8.13
2023-02-25T02:06:16.512Z,7.47
2023-02-25T02:08:45.815Z,8.30
2023-02-25T02:11:14.296Z,8.77
2023-02-25T02:13:49.409Z,9.27
2023-02-25T02:16:45.708Z,7.30
2023-02-25T02:19:54.510Z,7.40
2023-02-25T02:23:11.082Z,7.30
2023-02-25T02:25:45.183Z,7.85
2023-02-25T02:28:46.571Z,7.25
2023-02-25T02:31:53.528Z,6.82
2023-02-25T02:34:39.805Z,7.50
2023-02-25T02:37:34.197Z,7.40
2023-02-25T02:40:17.354Z,6.72
2023-02-25T02:43:15.329Z,8.73
2023-02-25T02:46:13.091Z,8.70
2023-02-25T02:49:23.712Z,8.50
2023-02-25T02:52:08.800Z,9.32
2023-02-25T02:54:40.792Z,9.07
2023-02-25T02:57:12.007Z,8.68
2023-02-25T02:59:54.511Z,8.25
2023-02-25T03:02:31.561Z,8.20
2023-02-25T03:05:14.501Z,7.38
2023-02-25T03:08:00.440Z,9.30
2023-02-25T03:10:28.766Z,8.70
2023-02-25T03:12:56.974Z,9.20
2023-02-25T03:15:29.805Z,8.10
2023-02-25T03:18:05.592Z,8.55
2023-02-25T03:20:43.147Z,8.48
2023-02-25T03:23:19.386Z,9.15
2023-02-25T03:25:56.669Z,9.88
2023-02-25T03:28:31.060Z,8.68
2023-02-25T03:31:42.725Z,8.60
2023-02-25T03:34:17.828Z,9.18
2023-02-25T03:37:02.620Z,10.13
2023-02-25T03:39:40.350Z,9.13
2023-02-25T03:42:14.405Z,8.57
2023-02-25T03:44:51.204Z,10.00
2023-02-25T03:47:22.762Z,8.65
2023-02-25T03:49:59.941Z,9.63
2023-02-25T03:52:29.837Z,9.32
2023-02-25T03:55:03.214Z,8.15
2023-02-25T03:57:43.709Z,9.38
2023-02-25T04:00:30.907Z,9.52
2023-02-25T04:03:00.064Z,9.38
2023-02-25T04:05:28.434Z,9.27
2023-02-25T04:07:58.975Z,10.27
2023-02-25T04:10:30.250Z,8.88
2023-02-25T04:12:58.146Z,7.65
2023-02-25T04:15:27.693Z,8.75
2023-02-25T04:17:55.883Z,8.63
2023-02-25T04:20:23.926Z,7.93
2023-02-25T04:22:51.835Z,8.57
2023-02-25T04:25:20.578Z,7.20
2023-02-25T04:27:48.854Z,7.38
2023-02-25T04:30:17.626Z,7.68
2023-02-25T04:32:46.083Z,8.18
2023-02-25T04:35:14.085Z,7.75
2023-02-25T04:37:42.755Z,7.60
2023-02-25T04:40:17.324Z,6.18
2023-02-25T04:42:45.486Z,8.20
2023-02-25T04:45:15.323Z,7.00
2023-02-25T04:47:44.164Z,7.43
2023-02-25T04:50:13.421Z,6.72
2023-02-25T04:52:41.632Z,8.02
2023-02-25T04:55:10.217Z,6.75
2023-02-25T04:57:42.497Z,6.88
2023-02-25T05:00:19.432Z,8.40
2023-02-25T05:02:48.673Z,10.10
2023-02-25T05:05:17.602Z,9.23
2023-02-25T05:07:45.762Z,9.77
2023-02-25T05:10:15.323Z,9.98
2023-02-25T05:12:44.188Z,9.75
2023-02-25T05:15:12.894Z,9.65
2023-02-25T05:17:40.846Z,10.52
2023-02-25T05:20:13.385Z,10.25
2023-02-25T05:22:42.277Z,10.45
2023-02-25T05:25:11.709Z,9.90
2023-02-25T05:27:39.820Z,9.55
2023-02-25T05:30:09.448Z,10.98
2023-02-25T05:32:39.010Z,8.95
2023-02-25T05:35:11.151Z,9.27
2023-02-25T05:37:40.331Z,9.77
2023-02-25T05:40:09.898Z,9.63
2023-02-25T05:42:38.169Z,9.32
2023-02-25T05:45:09.124Z,9.82
2023-02-25T05:47:37.676Z,8.43
2023-02-25T05:50:06.398Z,10.02
2023-02-25T05:52:34.766Z,9.05
2023-02-25T05:55:03.565Z,8.90
2023-02-25T05:57:32.002Z,8.95
2023-02-25T06:00:01.708Z,8.48
2023-02-25T06:02:29.961Z,8.93
2023-02-25T06:04:57.960Z,9.30
2023-02-25T06:07:28.929Z,9.40
2023-02-25T06:10:01.220Z,10.35
2023-02-25T06:12:31.835Z,11.68
2023-02-25T06:15:00.852Z,10.07
2023-02-25T06:17:29.179Z,10.48
2023-02-25T06:19:57.373Z,9.15
2023-02-25T06:22:25.239Z,9.45
2023-02-25T06:24:53.353Z,10.93
2023-02-25T06:27:21.426Z,9.95
2023-02-25T06:29:50.053Z,11.68
2023-02-25T06:32:19.866Z,9.35
2023-02-25T06:34:48.313Z,10.23
2023-02-25T06:37:16.534Z,9.65
2023-02-25T06:39:44.915Z,9.25
2023-02-25T06:42:12.926Z,9.52
2023-02-25T06:44:40.934Z,10.10
2023-02-25T06:47:09.660Z,10.20
2023-02-25T06:49:37.905Z,8.10
2023-02-25T06:52:06.325Z,8.75
2023-02-25T06:54:34.604Z,8.25
2023-02-25T06:57:02.765Z,9.00
2023-02-25T06:59:30.906Z,8.52
2023-02-25T07:01:58.954Z,7.72
2023-02-25T07:04:27.234Z,8.82
2023-02-25T07:06:56.384Z,10.27
2023-02-25T07:09:24.693Z,9.38
2023-02-25T07:11:53.736Z,9.80
2023-02-25T07:14:21.802Z,8.88
2023-02-25T07:16:50.211Z,9.65
2023-02-25T07:19:19.002Z,9.05
2023-02-25T07:21:47.588Z,10.35
2023-02-25T07:24:17.160Z,8.27
2023-02-25T07:26:45.598Z,10.25
2023-02-25T07:29:14.056Z,8.43
2023-02-25T07:31:42.827Z,10.38
2023-02-25T07:34:11.426Z,9.23
2023-02-25T07:36:39.519Z,8.20
2023-02-25T07:39:12.209Z,9.57
2023-02-25T07:41:40.774Z,8.50
2023-02-25T07:44:12.982Z,8.10
2023-02-25T07:46:41.889Z,8.63
2023-02-25T07:49:10.352Z,8.00
2023-02-25T07:51:38.517Z,7.72
2023-02-25T07:54:06.958Z,8.57
2023-02-25T07:56:37.703Z,8.93
2023-02-25T07:59:06.127Z,8.25
2023-02-25T08:01:35.095Z,8.88
2023-02-25T08:04:06.459Z,8.27
2023-02-25T08:06:40.187Z,10.43
2023-02-25T08:09:13.761Z,8.07
2023-02-25T08:11:42.925Z,9.80
2023-02-25T08:14:11.947Z,9.95
2023-02-25T08:16:44.065Z,9.00
2023-02-25T08:19:12.553Z,8.45
2023-02-25T08:21:40.700Z,8.18
2023-02-25T08:24:09.725Z,8.23
2023-02-25T08:26:39.208Z,6.88
2023-02-25T08:29:07.815Z,6.13
2023-02-25T08:31:37.304Z,6.57
2023-02-25T08:34:06.182Z,7.80
2023-02-25T08:36:34.570Z,8.02
2023-02-25T08:39:03.098Z,8.45
2023-02-25T08:41:32.476Z,7.35
2023-02-25T08:44:01.549Z,6.70
2023-02-25T08:46:34.012Z,6.38
2023-02-25T08:49:04.104Z,6.35
2023-02-25T08:51:35.055Z,7.80
2023-02-25T08:54:10.098Z,7.43
2023-02-25T08:56:45.171Z,6.93
2023-02-25T08:59:16.374Z,6.25
2023-02-25T09:01:45.372Z,8.87
2023-02-25T09:04:23.471Z,6.82
2023-02-25T09:06:54.382Z,7.18
2023-02-25T09:09:23.208Z,6.43
2023-02-25T09:11:52.042Z,7.68
2023-02-25T09:14:21.776Z,7.03
2023-02-25T09:16:51.442Z,7.43
2023-02-25T09:19:21.017Z,5.63
2023-02-25T09:21:49.352Z,7.57
2023-02-25T09:24:18.327Z,5.78
2023-02-25T09:26:47.906Z,7.97
2023-02-25T09:29:16.521Z,5.47
2023-02-25T09:31:44.668Z,7.15
2023-02-25T09:34:16.082Z,6.93
2023-02-25T09:36:44.962Z,8.35
2023-02-25T09:39:14.236Z,7.22
2023-02-25T09:42:03.869Z,8.18
2023-02-25T09:44:45.595Z,6.80
2023-02-25T09:47:46.370Z,7.05
2023-02-25T09:50:38.997Z,7.28
2023-02-25T09:53:36.890Z,6.00
2023-02-25T09:56:09.634Z,7.18
2023-02-25T09:58:49.351Z,5.95
2023-02-25T10:01:46.029Z,6.78
2023-02-25T10:04:38.296Z,6.20
2023-02-25T10:07:24.490Z,5.22
2023-02-25T10:10:06.803Z,6.38
2023-02-25T10:13:02.114Z,5.65
2023-02-25T10:16:06.631Z,5.70
2023-02-25T10:18:47.256Z,5.03
2023-02-25T10:22:01.275Z,4.25
2023-02-25T10:24:54.197Z,5.13
2023-02-25T10:27:41.957Z,5.57
2023-02-25T10:30:50.735Z,5.20
2023-02-25T10:33:25.656Z,8.98
2023-02-25T10:36:06.280Z,6.95
2023-02-25T10:38:43.292Z,5.35
2023-02-25T10:41:13.412Z,5.90
2023-02-25T10:43:43.488Z,9.63
2023-02-25T10:46:26.800Z,5.63
2023-02-25T10:48:59.889Z,7.03
2023-02-25T10:51:30.146Z,4.70
2023-02-25T10:53:59.685Z,4.07
2023-02-25T10:56:38.653Z,5.15
2023-02-25T10:59:31.352Z,5.22
2023-02-25T11:02:04.358Z,4.82
2023-02-25T11:04:37.671Z,5.75
2023-02-25T11:07:40.656Z,5.05
2023-02-25T11:10:20.717Z,4.88
2023-02-25T11:12:58.438Z,6.82
2023-02-25T11:15:46.877Z,6.53
2023-02-25T11:18:31.321Z,6.03
2023-02-25T11:21:09.188Z,4.45
2023-02-25T11:23:43.591Z,4.82
2023-02-25T11:26:29.181Z,4.93
2023-02-25T11:29:10.874Z,5.03
2023-02-25T11:31:42.355Z,4.82
2023-02-25T11:34:23.183Z,4.72
2023-02-25T11:36:53.081Z,6.68
2023-02-25T11:39:33.086Z,4.88
2023-02-25T11:42:26.022Z,5.07
2023-02-25T11:45:05.444Z,6.28
2023-02-25T11:47:38.321Z,4.85
2023-02-25T11:50:18.189Z,5.18
2023-02-25T11:53:13.654Z,5.90
2023-02-25T11:56:09.840Z,5.53
2023-02-25T11:58:46.638Z,5.00
2023-02-25T12:01:31.377Z,4.75
2023-02-25T12:04:20.642Z,4.60
2023-02-25T12:07:10.806Z,5.82
2023-02-25T12:09:56.953Z,4.53
2023-02-25T12:13:22.530Z,5.57
2023-02-25T12:16:23.471Z,6.47
2023-02-25T12:19:08.240Z,5.93
2023-02-25T12:22:34.358Z,4.32
2023-02-25T12:25:30.286Z,4.38
2023-02-25T12:28:41.301Z,4.45
2023-02-25T12:31:27.862Z,5.05
2023-02-25T12:34:11.766Z,5.75
2023-02-25T12:37:28.435Z,5.10
2023-02-25T12:40:28.483Z,6.10
2023-02-25T12:43:33.854Z,5.55
2023-02-25T12:46:40.157Z,4.00
2023-02-25T12:50:00.857Z,5.72
2023-02-25T12:53:00.568Z,4.95
2023-02-25T12:56:04.269Z,4.65
2023-02-25T12:59:11.180Z,5.55
2023-02-25T13:02:19.265Z,4.78
2023-02-25T13:05:19.042Z,6.38
2023-02-25T13:08:41.570Z,5.53
2023-02-25T13:12:10.600Z,4.20
2023-02-25T13:15:12.707Z,5.53
2023-02-25T13:18:24.395Z,8.80
2023-02-25T13:20:58.831Z,5.57
2023-02-25T13:24:01.236Z,3.95
2023-02-25T13:27:05.606Z,4.80
2023-02-25T13:30:15.484Z,4.93
2023-02-25T13:33:24.053Z,5.10
2023-02-25T13:36:24.864Z,5.20
2023-02-25T13:39:11.351Z,5.35
2023-02-25T13:42:34.178Z,3.25
2023-02-25T13:45:49.974Z,3.83
2023-02-25T13:48:34.106Z,3.13
2023-02-25T13:51:42.410Z,4.82
2023-02-25T13:54:42.107Z,4.05
2023-02-25T13:57:18.016Z,4.22
2023-02-25T14:00:30.988Z,6.90
2023-02-25T14:03:47.379Z,5.00
2023-02-25T14:07:00.457Z,6.00
2023-02-25T14:09:44.829Z,5.93
2023-02-25T14:12:47.076Z,4.28
2023-02-25T14:18:11.666Z,4.63
2023-02-25T14:21:16.621Z,6.38
2023-02-25T14:24:29.873Z,6.90
2023-02-25T14:27:26.300Z,5.18
2023-02-25T14:30:04.598Z,6.47
2023-02-25T14:33:11.574Z,4.45
2023-02-25T14:36:56.938Z,8.45
2023-02-25T14:40:26.383Z,6.63
2023-02-25T14:43:35.914Z,6.20
2023-02-25T14:46:19.773Z,7.13
2023-02-25T14:49:21.738Z,6.95
2023-02-25T14:52:17.126Z,6.35
2023-02-25T14:55:07.498Z,9.50
2023-02-25T14:57:51.337Z,4.65
2023-02-25T15:00:40.327Z,6.63
2023-02-25T15:04:04.968Z,5.57
2023-02-25T15:06:54.573Z,8.20
2023-02-25T15:09:57.307Z,4.28
2023-02-25T15:13:08.216Z,5.35
2023-02-25T15:16:26.991Z,4.32
2023-02-25T15:19:20.139Z,5.05
2023-02-25T15:21:52.067Z,6.15
2023-02-25T15:24:41.408Z,4.95
2023-02-25T15:27:36.074Z,4.25
2023-02-25T15:30:14.571Z,4.25
2023-02-25T15:33:32.350Z,5.15
2023-02-25T15:36:43.576Z,3.90
2023-02-25T15:39:48.306Z,3.88
2023-02-25T15:42:16.950Z,4.03
2023-02-25T15:44:48.314Z,8.65
2023-02-25T15:47:22.494Z,4.15
2023-02-25T15:49:52.129Z,5.60
2023-02-25T15:52:58.019Z,5.43
2023-02-25T15:55:46.312Z,5.28
2023-02-25T16:22:32.701Z,4.63
2023-02-25T16:25:02.134Z,5.15
2023-02-25T16:27:57.689Z,4.97
2023-02-25T16:30:48.847Z,6.10
2023-02-25T16:33:53.929Z,5.43
2023-02-25T16:37:12.953Z,7.78
2023-02-25T16:39:43.821Z,6.30
2023-02-25T16:42:18.635Z,4.78
2023-02-25T16:45:05.812Z,6.05
2023-02-25T16:47:37.733Z,6.05
2023-02-25T16:52:50.674Z,5.43
2023-02-25T16:55:30.848Z,4.18
2023-02-25T16:58:14.504Z,5.13
2023-02-25T17:01:05.180Z,6.53
2023-02-25T17:03:46.848Z,5.07
2023-02-25T17:06:22.138Z,4.43
2023-02-25T17:08:51.553Z,8.52
2023-02-25T17:11:26.328Z,5.00
2023-02-25T17:13:58.956Z,7.45
2023-02-25T17:16:41.347Z,4.88
2023-02-25T17:19:12.706Z,4.95
2023-02-25T17:21:44.974Z,5.35
2023-02-25T17:24:19.378Z,4.30
2023-02-25T17:26:50.916Z,5.35
2023-02-25T17:29:19.979Z,5.28
2023-02-25T17:31:51.238Z,6.15
2023-02-25T17:34:35.955Z,5.18
2023-02-25T17:37:09.765Z,6.05
2023-02-25T17:39:40.761Z,6.18
2023-02-25T17:42:33.407Z,6.43
2023-02-25T17:45:07.912Z,5.32
2023-02-25T17:47:38.269Z,5.80
2023-02-25T17:50:30.944Z,5.93
2023-02-25T17:53:00.854Z,5.20
2023-02-25T17:55:41.396Z,6.13
2023-02-25T17:58:24.808Z,6.10
2023-02-25T18:01:03.197Z,7.55
2023-02-25T18:03:46.886Z,7.20
2023-02-25T18:06:44.875Z,6.30
2023-02-25T18:09:39.171Z,9.45
2023-02-25T18:12:37.664Z,6.35
2023-02-25T18:15:31.061Z,6.72
2023-02-25T18:18:10.960Z,7.85
2023-02-25T18:20:43.340Z,7.00
2023-02-25T18:23:15.972Z,6.40
2023-02-25T18:26:10.403Z,8.30
2023-02-25T18:28:39.339Z,6.72
2023-02-25T18:31:08.381Z,6.65
2023-02-25T18:33:37.339Z,6.93
2023-02-25T18:36:09.909Z,7.50
2023-02-25T18:38:38.256Z,7.53
2023-02-25T18:41:08.666Z,7.88
2023-02-25T18:43:42.442Z,7.13
2023-02-25T18:46:12.300Z,7.28
2023-02-25T18:48:40.669Z,7.88
2023-02-25T18:51:16.908Z,8.43
2023-02-25T18:53:45.338Z,9.10
2023-02-25T18:56:18.924Z,6.15
2023-02-25T18:58:47.571Z,7.78
2023-02-25T19:01:24.369Z,7.93
2023-02-25T19:03:54.590Z,9.45
2023-02-25T19:06:23.645Z,7.13
2023-02-25T19:08:52.185Z,8.95
2023-02-25T19:11:26.246Z,7.40
2023-02-25T19:13:55.213Z,9.30
2023-02-25T19:16:24.155Z,7.43
2023-02-25T19:18:52.593Z,10.00
2023-02-25T19:21:22.538Z,8.68
2023-02-25T19:23:51.841Z,8.35
2023-02-25T19:26:21.157Z,6.97
2023-02-25T19:28:49.616Z,8.32
2023-02-25T19:31:18.757Z,6.60
2023-02-25T19:33:47.408Z,9.18
2023-02-25T19:36:15.896Z,6.70
2023-02-25T19:38:44.104Z,8.95
2023-02-25T19:41:14.536Z,8.20
2023-02-25T19:43:43.385Z,9.65
2023-02-25T19:46:11.863Z,7.82
2023-02-25T19:48:40.282Z,7.78
2023-02-25T19:51:10.977Z,7.22
2023-02-25T19:53:40.714Z,5.85
2023-02-25T19:56:09.030Z,6.63
2023-02-25T19:58:40.863Z,6.63
2023-02-25T20:03:38.149Z,6.80
2023-02-25T20:06:11.345Z,8.50
2023-02-25T20:08:41.569Z,8.05
2023-02-25T20:11:11.530Z,7.70
2023-02-25T20:13:39.851Z,8.30
2023-02-25T20:16:09.554Z,7.70
2023-02-25T20:18:38.546Z,8.38
2023-02-25T20:21:07.535Z,8.95
2023-02-25T20:23:37.368Z,8.60
2023-02-25T20:26:14.233Z,8.73
2023-02-25T20:28:43.000Z,8.82
2023-02-25T20:31:18.847Z,7.90
2023-02-25T20:33:50.410Z,9.40
2023-02-25T20:36:28.568Z,7.80
2023-02-25T20:39:31.421Z,8.93
2023-02-25T20:42:00.072Z,8.18
2023-02-25T20:44:29.210Z,7.10
2023-02-25T20:47:01.443Z,7.65
2023-02-25T20:49:33.134Z,9.00
2023-02-25T20:52:02.170Z,9.15
2023-02-25T20:54:30.763Z,9.00
2023-02-25T20:57:00.504Z,7.70
2023-02-25T20:59:29.218Z,8.05
2023-02-25T21:02:00.388Z,7.93
2023-02-25T21:04:28.776Z,9.02
2023-02-25T21:06:57.430Z,10.52
2023-02-25T21:09:26.786Z,8.35
2023-02-25T21:11:54.881Z,9.55
2023-02-25T21:14:23.262Z,7.53
2023-02-25T21:16:54.403Z,9.55
2023-02-25T21:19:25.444Z,7.97
2023-02-25T21:21:53.872Z,10.20
2023-02-25T21:24:22.986Z,8.82
2023-02-25T21:26:51.861Z,9.20
2023-02-25T21:29:20.617Z,7.43
2023-02-25T21:31:49.053Z,9.23
2023-02-25T21:34:18.318Z,7.40
2023-02-25T21:36:48.127Z,8.25
2023-02-25T21:39:17.023Z,5.78
2023-02-25T21:41:45.567Z,7.50
2023-02-25T21:44:14.433Z,8.07
2023-02-25T21:46:42.924Z,8.57
2023-02-25T21:49:14.496Z,6.55
2023-02-25T21:54:11.276Z,6.35
2023-02-25T21:56:41.261Z,6.82
2023-02-25T21:59:10.271Z,7.47
2023-02-25T22:01:42.641Z,7.22
2023-02-25T22:04:11.686Z,7.15
2023-02-25T22:06:40.292Z,6.97
2023-02-25T22:09:08.919Z,7.50
2023-02-25T22:11:39.114Z,7.53
2023-02-25T22:14:09.074Z,6.43
2023-02-25T22:16:39.664Z,6.97
2023-02-25T22:19:08.482Z,6.53
2023-02-25T22:21:37.400Z,7.40
2023-02-25T22:24:06.514Z,6.68
2023-02-25T22:26:37.097Z,6.80
2023-02-25T22:29:11.969Z,6.57
2023-02-25T22:31:41.020Z,6.47
2023-02-25T22:34:10.266Z,6.72
2023-02-25T22:36:38.781Z,6.63
2023-02-25T22:39:09.378Z,6.85
2023-02-25T22:41:39.038Z,6.65
2023-02-25T22:44:07.425Z,7.07
2023-02-25T22:46:39.492Z,7.10
2023-02-25T22:49:12.549Z,8.73
2023-02-25T22:51:44.810Z,8.02
2023-02-25T22:54:17.359Z,9.18
2023-02-25T22:56:47.572Z,9.55
2023-02-25T22:59:18.117Z,8.13
2023-02-25T23:01:47.733Z,9.63
2023-02-25T23:04:16.392Z,7.82
2023-02-25T23:06:45.492Z,11.07
2023-02-25T23:17:32.147Z,9.45
2023-02-25T23:20:00.486Z,9.35
2023-02-25T23:22:30.825Z,9.52
2023-02-25T23:24:59.223Z,10.55
2023-02-25T23:27:27.513Z,9.23
2023-02-25T23:29:55.529Z,9.65
2023-02-25T23:32:24.204Z,9.82
2023-02-25T23:34:52.640Z,10.80
2023-02-25T23:37:20.690Z,10.35
2023-02-25T23:39:50.387Z,9.57
2023-02-25T23:42:18.554Z,9.15
2023-02-25T23:44:46.453Z,11.55
2023-02-25T23:47:14.611Z,10.38
2023-02-25T23:49:42.829Z,10.70
2023-02-25T23:52:11.150Z,9.82
2023-02-25T23:54:39.568Z,10.27
2023-02-25T23:57:07.626Z,9.15
2023-02-25T23:59:35.946Z,9.55
